Skip Navigation LinksHome page > Weather > Current weather Skip Navigation Links

Current Weather

Jakutsk, Russia

For information only: do not use for flight planning or navigation.
Latest weather
Observation time Wednesday, March 29, 2017 3:30 PM JST
Local time Wednesday, March 29, 2017 4:15 PM JST
Flight conditions Visual Meteorological Conditions
Winds
Wind direction West-Northwest (300°)
Wind speed 9 mph
Visibility 6.2 mi.
Sky condition
Ceiling unlimited
Sky clear
Temperature 34°F
Dewpoint 10°F
Altimeter 30.15 in.Hg
Precipitation
QF 3:37 AM
Derived measurements
Relative humidity 37%
Wind chill 27°F
Density altitude -1588 ft.
Remarks
Ceiling and visibility OK.
No significant changes expected in the next two hours.
METAR UEEE 290630Z 30004MPS CAVOK 01/M12 Q1021 R23L/09//55 NOSIG RMK QFE757

Settings

Location code

InnerDrive.Weather 4.0.6144.1 Release CLR 4.0.30319.34209
Copyright ©2015 Inner Drive Technology. All rights reserved. Portions Copyright ©1986-2015 David Braverman.

Find weather

Site navigation


Skip Navigation Links

Place info

Page info

PayPal - The safer, easier way to pay online!

Return home.

Copyright ©2017 Inner Drive Technology. Purveyors of fine, hand-crafted computer software. Page printed 2017-03-29T07:15:00 UTC.